sensor_id;sensor_type;location;lat;lon;timestamp;pressure;altitude;pressure_sealevel;temperature
22322;BMP180;11328;53.928;18.522;2023-08-30T00:00:06;99180.00;;;21.80
22322;BMP180;11328;53.928;18.522;2023-08-30T00:02:33;99198.00;;;21.70
22322;BMP180;11328;53.928;18.522;2023-08-30T00:05:02;99189.00;;;21.60
22322;BMP180;11328;53.928;18.522;2023-08-30T00:07:30;99180.00;;;21.50
22322;BMP180;11328;53.928;18.522;2023-08-30T00:09:59;99162.00;;;21.40
22322;BMP180;11328;53.928;18.522;2023-08-30T00:12:26;99189.00;;;21.40
22322;BMP180;11328;53.928;18.522;2023-08-30T00:14:53;99180.00;;;21.20
22322;BMP180;11328;53.928;18.522;2023-08-30T00:17:20;99174.00;;;21.30
22322;BMP180;11328;53.928;18.522;2023-08-30T00:19:48;99183.00;;;21.20
22322;BMP180;11328;53.928;18.522;2023-08-30T00:22:15;99178.00;;;21.20
22322;BMP180;11328;53.928;18.522;2023-08-30T00:24:43;99177.00;;;21.20
22322;BMP180;11328;53.928;18.522;2023-08-30T00:27:11;99178.00;;;21.20
22322;BMP180;11328;53.928;18.522;2023-08-30T00:29:39;99178.00;;;21.20
22322;BMP180;11328;53.928;18.522;2023-08-30T00:32:06;99165.00;;;21.20
22322;BMP180;11328;53.928;18.522;2023-08-30T00:34:33;99167.00;;;21.10
22322;BMP180;11328;53.928;18.522;2023-08-30T00:37:00;99167.00;;;21.00
22322;BMP180;11328;53.928;18.522;2023-08-30T00:39:28;99161.00;;;21.00
22322;BMP180;11328;53.928;18.522;2023-08-30T00:41:56;99156.00;;;21.10
22322;BMP180;11328;53.928;18.522;2023-08-30T00:44:23;99151.00;;;21.10
22322;BMP180;11328;53.928;18.522;2023-08-30T00:46:50;99158.00;;;21.30
22322;BMP180;11328;53.928;18.522;2023-08-30T00:49:18;99152.00;;;21.20
22322;BMP180;11328;53.928;18.522;2023-08-30T00:51:45;99147.00;;;21.10
22322;BMP180;11328;53.928;18.522;2023-08-30T00:54:13;99142.00;;;21.10
22322;BMP180;11328;53.928;18.522;2023-08-30T00:56:40;99147.00;;;21.10
22322;BMP180;11328;53.928;18.522;2023-08-30T00:59:07;99138.00;;;21.20
22322;BMP180;11328;53.928;18.522;2023-08-30T01:01:35;99140.00;;;21.10
22322;BMP180;11328;53.928;18.522;2023-08-30T01:04:03;99127.00;;;21.10
22322;BMP180;11328;53.928;18.522;2023-08-30T01:06:30;99146.00;;;21.20
22322;BMP180;11328;53.928;18.522;2023-08-30T01:08:58;98948.00;;;21.10
22322;BMP180;11328;53.928;18.522;2023-08-30T01:15:09;99130.00;;;20.70
22322;BMP180;11328;53.928;18.522;2023-08-30T01:17:41;99137.00;;;20.70
22322;BMP180;11328;53.928;18.522;2023-08-30T01:20:14;99124.00;;;20.50
22322;BMP180;11328;53.928;18.522;2023-08-30T01:26:17;99126.00;;;20.30
22322;BMP180;11328;53.928;18.522;2023-08-30T01:28:49;99130.00;;;20.30
22322;BMP180;11328;53.928;18.522;2023-08-30T01:31:18;99133.00;;;20.40
22322;BMP180;11328;53.928;18.522;2023-08-30T01:33:47;99131.00;;;20.40
22322;BMP180;11328;53.928;18.522;2023-08-30T01:36:16;99134.00;;;20.30
22322;BMP180;11328;53.928;18.522;2023-08-30T01:38:45;99129.00;;;20.10
22322;BMP180;11328;53.928;18.522;2023-08-30T01:41:14;99115.00;;;20.10
22322;BMP180;11328;53.928;18.522;2023-08-30T01:43:42;99127.00;;;20.20
22322;BMP180;11328;53.928;18.522;2023-08-30T01:46:11;99107.00;;;20.30
22322;BMP180;11328;53.928;18.522;2023-08-30T01:48:40;99128.00;;;20.40
22322;BMP180;11328;53.928;18.522;2023-08-30T01:51:08;99132.00;;;20.50
22322;BMP180;11328;53.928;18.522;2023-08-30T01:53:36;99131.00;;;20.30
22322;BMP180;11328;53.928;18.522;2023-08-30T01:56:04;99132.00;;;20.40
22322;BMP180;11328;53.928;18.522;2023-08-30T01:58:31;99134.00;;;20.30
22322;BMP180;11328;53.928;18.522;2023-08-30T02:01:00;99123.00;;;20.30
22322;BMP180;11328;53.928;18.522;2023-08-30T02:03:28;99130.00;;;20.30
22322;BMP180;11328;53.928;18.522;2023-08-30T02:06:45;99128.00;;;20.30
22322;BMP180;11328;53.928;18.522;2023-08-30T02:09:21;99127.00;;;20.10
22322;BMP180;11328;53.928;18.522;2023-08-30T02:11:52;99123.00;;;20.10
22322;BMP180;11328;53.928;18.522;2023-08-30T02:14:21;99122.00;;;20.20
22322;BMP180;11328;53.928;18.522;2023-08-30T02:16:51;99117.00;;;20.20
22322;BMP180;11328;53.928;18.522;2023-08-30T02:19:19;99123.00;;;20.10
22322;BMP180;11328;53.928;18.522;2023-08-30T02:21:48;99125.00;;;20.20
22322;BMP180;11328;53.928;18.522;2023-08-30T02:24:16;99121.00;;;20.20
22322;BMP180;11328;53.928;18.522;2023-08-30T02:26:44;99122.00;;;20.20
22322;BMP180;11328;53.928;18.522;2023-08-30T02:29:12;99118.00;;;20.30
22322;BMP180;11328;53.928;18.522;2023-08-30T02:31:40;99114.00;;;20.30
22322;BMP180;11328;53.928;18.522;2023-08-30T02:34:07;99122.00;;;20.30
22322;BMP180;11328;53.928;18.522;2023-08-30T02:36:35;99121.00;;;20.40
22322;BMP180;11328;53.928;18.522;2023-08-30T02:39:03;99116.00;;;20.40
22322;BMP180;11328;53.928;18.522;2023-08-30T02:41:30;99113.00;;;20.20
22322;BMP180;11328;53.928;18.522;2023-08-30T02:43:57;99122.00;;;20.20
22322;BMP180;11328;53.928;18.522;2023-08-30T02:46:24;99118.00;;;20.30
22322;BMP180;11328;53.928;18.522;2023-08-30T02:48:52;99121.00;;;20.40
22322;BMP180;11328;53.928;18.522;2023-08-30T02:51:19;99117.00;;;20.40
22322;BMP180;11328;53.928;18.522;2023-08-30T02:53:47;99111.00;;;20.40
22322;BMP180;11328;53.928;18.522;2023-08-30T02:56:14;99086.00;;;20.40
22322;BMP180;11328;53.928;18.522;2023-08-30T02:58:41;99110.00;;;20.30
22322;BMP180;11328;53.928;18.522;2023-08-30T03:01:09;99106.00;;;20.20
22322;BMP180;11328;53.928;18.522;2023-08-30T03:03:36;99107.00;;;20.10
22322;BMP180;11328;53.928;18.522;2023-08-30T03:06:04;99115.00;;;20.00
22322;BMP180;11328;53.928;18.522;2023-08-30T03:08:31;99110.00;;;20.10
22322;BMP180;11328;53.928;18.522;2023-08-30T03:11:11;99116.00;;;20.10
22322;BMP180;11328;53.928;18.522;2023-08-30T03:13:39;99105.00;;;20.20
22322;BMP180;11328;53.928;18.522;2023-08-30T03:16:11;99110.00;;;20.30
22322;BMP180;11328;53.928;18.522;2023-08-30T03:18:40;99125.00;;;20.40
22322;BMP180;11328;53.928;18.522;2023-08-30T03:21:09;99119.00;;;20.50
22322;BMP180;11328;53.928;18.522;2023-08-30T03:23:37;99112.00;;;19.80
22322;BMP180;11328;53.928;18.522;2023-08-30T03:26:14;99117.00;;;20.50
22322;BMP180;11328;53.928;18.522;2023-08-30T03:28:44;99115.00;;;20.40
22322;BMP180;11328;53.928;18.522;2023-08-30T03:31:19;99111.00;;;20.50
22322;BMP180;11328;53.928;18.522;2023-08-30T03:33:48;99111.00;;;20.20
22322;BMP180;11328;53.928;18.522;2023-08-30T03:36:17;99113.00;;;20.10
22322;BMP180;11328;53.928;18.522;2023-08-30T03:38:46;99119.00;;;20.00
22322;BMP180;11328;53.928;18.522;2023-08-30T03:41:14;99124.00;;;20.00
22322;BMP180;11328;53.928;18.522;2023-08-30T03:43:41;99128.00;;;19.90
22322;BMP180;11328;53.928;18.522;2023-08-30T03:46:09;99125.00;;;19.90
22322;BMP180;11328;53.928;18.522;2023-08-30T03:48:39;99127.00;;;19.90
22322;BMP180;11328;53.928;18.522;2023-08-30T03:51:06;99130.00;;;20.00
22322;BMP180;11328;53.928;18.522;2023-08-30T03:53:34;99127.00;;;19.90
22322;BMP180;11328;53.928;18.522;2023-08-30T03:56:01;99132.00;;;19.80
22322;BMP180;11328;53.928;18.522;2023-08-30T03:58:31;99137.00;;;19.80
22322;BMP180;11328;53.928;18.522;2023-08-30T04:00:58;99134.00;;;19.80
22322;BMP180;11328;53.928;18.522;2023-08-30T04:03:25;99131.00;;;19.70
22322;BMP180;11328;53.928;18.522;2023-08-30T04:05:56;99130.00;;;19.70
22322;BMP180;11328;53.928;18.522;2023-08-30T04:08:24;99136.00;;;19.80
22322;BMP180;11328;53.928;18.522;2023-08-30T04:10:53;99144.00;;;19.80
22322;BMP180;11328;53.928;18.522;2023-08-30T04:13:21;99150.00;;;19.80
22322;BMP180;11328;53.928;18.522;2023-08-30T04:15:48;99150.00;;;19.70
22322;BMP180;11328;53.928;18.522;2023-08-30T04:18:16;99154.00;;;19.60
22322;BMP180;11328;53.928;18.522;2023-08-30T04:20:45;99145.00;;;19.70
22322;BMP180;11328;53.928;18.522;2023-08-30T04:23:13;99137.00;;;19.80
22322;BMP180;11328;53.928;18.522;2023-08-30T04:25:40;99135.00;;;19.80
22322;BMP180;11328;53.928;18.522;2023-08-30T04:28:08;99134.00;;;19.80
22322;BMP180;11328;53.928;18.522;2023-08-30T04:30:37;99133.00;;;19.90
22322;BMP180;11328;53.928;18.522;2023-08-30T04:33:05;99127.00;;;19.50
22322;BMP180;11328;53.928;18.522;2023-08-30T04:35:32;99125.00;;;19.70
22322;BMP180;11328;53.928;18.522;2023-08-30T04:38:01;99117.00;;;19.60
22322;BMP180;11328;53.928;18.522;2023-08-30T04:40:31;99114.00;;;19.60
22322;BMP180;11328;53.928;18.522;2023-08-30T04:42:59;99116.00;;;19.70
22322;BMP180;11328;53.928;18.522;2023-08-30T04:45:27;99114.00;;;19.70
22322;BMP180;11328;53.928;18.522;2023-08-30T04:47:54;99125.00;;;19.80
22322;BMP180;11328;53.928;18.522;2023-08-30T04:50:22;99099.00;;;19.70
22322;BMP180;11328;53.928;18.522;2023-08-30T04:52:50;99140.00;;;19.70
22322;BMP180;11328;53.928;18.522;2023-08-30T04:55:18;99140.00;;;19.80
22322;BMP180;11328;53.928;18.522;2023-08-30T04:57:45;99135.00;;;19.90
22322;BMP180;11328;53.928;18.522;2023-08-30T05:00:14;99143.00;;;19.90
22322;BMP180;11328;53.928;18.522;2023-08-30T05:02:42;99128.00;;;19.90
22322;BMP180;11328;53.928;18.522;2023-08-30T05:05:11;99140.00;;;19.90
22322;BMP180;11328;53.928;18.522;2023-08-30T05:07:38;99129.00;;;20.00
22322;BMP180;11328;53.928;18.522;2023-08-30T05:10:06;99133.00;;;19.90
22322;BMP180;11328;53.928;18.522;2023-08-30T05:12:35;99121.00;;;19.80
22322;BMP180;11328;53.928;18.522;2023-08-30T05:15:03;99121.00;;;19.70
22322;BMP180;11328;53.928;18.522;2023-08-30T05:17:31;99121.00;;;19.70
22322;BMP180;11328;53.928;18.522;2023-08-30T05:19:58;99121.00;;;19.80
22322;BMP180;11328;53.928;18.522;2023-08-30T05:22:26;99122.00;;;19.90
22322;BMP180;11328;53.928;18.522;2023-08-30T05:24:53;99133.00;;;20.10
22322;BMP180;11328;53.928;18.522;2023-08-30T05:27:21;99132.00;;;20.20
22322;BMP180;11328;53.928;18.522;2023-08-30T05:29:48;99134.00;;;20.10
22322;BMP180;11328;53.928;18.522;2023-08-30T05:32:15;99135.00;;;20.20
22322;BMP180;11328;53.928;18.522;2023-08-30T05:34:42;99147.00;;;20.20
22322;BMP180;11328;53.928;18.522;2023-08-30T05:37:09;99147.00;;;20.20
22322;BMP180;11328;53.928;18.522;2023-08-30T05:39:38;99151.00;;;20.20
22322;BMP180;11328;53.928;18.522;2023-08-30T05:42:05;99147.00;;;20.10
22322;BMP180;11328;53.928;18.522;2023-08-30T05:44:32;99152.00;;;20.10
22322;BMP180;11328;53.928;18.522;2023-08-30T05:47:00;99147.00;;;20.00
22322;BMP180;11328;53.928;18.522;2023-08-30T05:49:27;99145.00;;;20.10
22322;BMP180;11328;53.928;18.522;2023-08-30T05:51:54;99147.00;;;20.00
22322;BMP180;11328;53.928;18.522;2023-08-30T05:54:21;99150.00;;;20.00
22322;BMP180;11328;53.928;18.522;2023-08-30T05:56:48;99143.00;;;20.00
22322;BMP180;11328;53.928;18.522;2023-08-30T05:59:16;99147.00;;;20.10
22322;BMP180;11328;53.928;18.522;2023-08-30T06:01:44;99143.00;;;20.10
22322;BMP180;11328;53.928;18.522;2023-08-30T06:04:12;99136.00;;;20.10
22322;BMP180;11328;53.928;18.522;2023-08-30T06:06:40;99142.00;;;20.20
22322;BMP180;11328;53.928;18.522;2023-08-30T06:09:07;99141.00;;;20.20
22322;BMP180;11328;53.928;18.522;2023-08-30T06:11:35;99135.00;;;20.10
22322;BMP180;11328;53.928;18.522;2023-08-30T06:14:02;99144.00;;;20.10
22322;BMP180;11328;53.928;18.522;2023-08-30T06:16:29;99142.00;;;20.20
22322;BMP180;11328;53.928;18.522;2023-08-30T06:18:57;99145.00;;;20.20
22322;BMP180;11328;53.928;18.522;2023-08-30T06:21:26;99143.00;;;20.20
22322;BMP180;11328;53.928;18.522;2023-08-30T06:23:53;99144.00;;;20.30
22322;BMP180;11328;53.928;18.522;2023-08-30T06:26:21;99148.00;;;20.50
22322;BMP180;11328;53.928;18.522;2023-08-30T06:28:48;99138.00;;;20.50
22322;BMP180;11328;53.928;18.522;2023-08-30T06:31:31;99151.00;;;20.60
22322;BMP180;11328;53.928;18.522;2023-08-30T06:34:00;99138.00;;;20.60
22322;BMP180;11328;53.928;18.522;2023-08-30T06:36:27;99140.00;;;20.60
22322;BMP180;11328;53.928;18.522;2023-08-30T06:38:54;99149.00;;;20.50
22322;BMP180;11328;53.928;18.522;2023-08-30T06:41:21;99156.00;;;20.50
22322;BMP180;11328;53.928;18.522;2023-08-30T06:43:50;99155.00;;;20.60
22322;BMP180;11328;53.928;18.522;2023-08-30T06:46:17;99150.00;;;20.60
22322;BMP180;11328;53.928;18.522;2023-08-30T06:48:44;99146.00;;;20.50
22322;BMP180;11328;53.928;18.522;2023-08-30T06:51:11;99143.00;;;20.60
22322;BMP180;11328;53.928;18.522;2023-08-30T06:53:38;99153.00;;;20.60
22322;BMP180;11328;53.928;18.522;2023-08-30T06:56:05;99154.00;;;20.80
22322;BMP180;11328;53.928;18.522;2023-08-30T06:58:33;99152.00;;;20.70
22322;BMP180;11328;53.928;18.522;2023-08-30T07:01:01;99147.00;;;20.70
22322;BMP180;11328;53.928;18.522;2023-08-30T07:03:30;99157.00;;;20.80
22322;BMP180;11328;53.928;18.522;2023-08-30T07:05:57;99167.00;;;20.70
22322;BMP180;11328;53.928;18.522;2023-08-30T07:08:25;99161.00;;;20.80
22322;BMP180;11328;53.928;18.522;2023-08-30T07:10:55;99167.00;;;20.70
22322;BMP180;11328;53.928;18.522;2023-08-30T07:13:23;99158.00;;;20.80
22322;BMP180;11328;53.928;18.522;2023-08-30T07:15:50;99180.00;;;20.70
22322;BMP180;11328;53.928;18.522;2023-08-30T07:18:18;99176.00;;;20.90
22322;BMP180;11328;53.928;18.522;2023-08-30T07:20:45;99186.00;;;21.00
22322;BMP180;11328;53.928;18.522;2023-08-30T07:23:12;99169.00;;;21.10
22322;BMP180;11328;53.928;18.522;2023-08-30T07:25:39;99196.00;;;21.10
22322;BMP180;11328;53.928;18.522;2023-08-30T07:28:07;99200.00;;;21.00
22322;BMP180;11328;53.928;18.522;2023-08-30T07:30:35;99203.00;;;20.90
22322;BMP180;11328;53.928;18.522;2023-08-30T07:33:04;99201.00;;;20.90
22322;BMP180;11328;53.928;18.522;2023-08-30T07:35:32;99201.00;;;20.90
22322;BMP180;11328;53.928;18.522;2023-08-30T07:38:00;99198.00;;;20.80
22322;BMP180;11328;53.928;18.522;2023-08-30T07:40:27;99201.00;;;20.90
22322;BMP180;11328;53.928;18.522;2023-08-30T07:42:55;99206.00;;;20.90
22322;BMP180;11328;53.928;18.522;2023-08-30T07:45:30;99203.00;;;20.90
22322;BMP180;11328;53.928;18.522;2023-08-30T07:47:57;99205.00;;;21.10
22322;BMP180;11328;53.928;18.522;2023-08-30T07:50:24;99198.00;;;21.30
22322;BMP180;11328;53.928;18.522;2023-08-30T07:52:52;99212.00;;;21.50
22322;BMP180;11328;53.928;18.522;2023-08-30T07:55:19;99206.00;;;21.60
22322;BMP180;11328;53.928;18.522;2023-08-30T07:57:46;99208.00;;;21.70
22322;BMP180;11328;53.928;18.522;2023-08-30T08:00:14;99208.00;;;21.70
22322;BMP180;11328;53.928;18.522;2023-08-30T08:02:41;99212.00;;;21.80
22322;BMP180;11328;53.928;18.522;2023-08-30T08:05:08;99205.00;;;21.80
22322;BMP180;11328;53.928;18.522;2023-08-30T08:07:39;99180.00;;;22.00
22322;BMP180;11328;53.928;18.522;2023-08-30T08:10:08;99199.00;;;22.00
22322;BMP180;11328;53.928;18.522;2023-08-30T08:12:35;99206.00;;;22.20
22322;BMP180;11328;53.928;18.522;2023-08-30T08:15:04;99220.00;;;22.10
22322;BMP180;11328;53.928;18.522;2023-08-30T08:17:31;99212.00;;;22.00
22322;BMP180;11328;53.928;18.522;2023-08-30T08:19:58;99219.00;;;22.00
22322;BMP180;11328;53.928;18.522;2023-08-30T08:22:28;99211.00;;;22.10
22322;BMP180;11328;53.928;18.522;2023-08-30T08:24:56;99212.00;;;22.10
22322;BMP180;11328;53.928;18.522;2023-08-30T08:27:27;99201.00;;;22.20
22322;BMP180;11328;53.928;18.522;2023-08-30T08:29:54;99197.00;;;22.30
22322;BMP180;11328;53.928;18.522;2023-08-30T08:32:22;99198.00;;;22.30
22322;BMP180;11328;53.928;18.522;2023-08-30T08:34:49;99196.00;;;22.40
22322;BMP180;11328;53.928;18.522;2023-08-30T08:37:16;99201.00;;;22.60
22322;BMP180;11328;53.928;18.522;2023-08-30T08:39:44;99199.00;;;22.60
22322;BMP180;11328;53.928;18.522;2023-08-30T08:42:17;99196.00;;;22.60
22322;BMP180;11328;53.928;18.522;2023-08-30T08:44:47;99206.00;;;22.70
22322;BMP180;11328;53.928;18.522;2023-08-30T08:47:19;99215.00;;;22.90
22322;BMP180;11328;53.928;18.522;2023-08-30T08:49:47;99220.00;;;22.90
22322;BMP180;11328;53.928;18.522;2023-08-30T08:52:15;99222.00;;;22.70
22322;BMP180;11328;53.928;18.522;2023-08-30T08:54:59;99227.00;;;22.60
22322;BMP180;11328;53.928;18.522;2023-08-30T08:57:29;99228.00;;;22.60
22322;BMP180;11328;53.928;18.522;2023-08-30T08:59:58;99230.00;;;22.40
22322;BMP180;11328;53.928;18.522;2023-08-30T09:02:26;99239.00;;;22.50
22322;BMP180;11328;53.928;18.522;2023-08-30T09:04:58;99249.00;;;22.50
22322;BMP180;11328;53.928;18.522;2023-08-30T09:07:27;99238.00;;;22.40
22322;BMP180;11328;53.928;18.522;2023-08-30T09:09:57;99241.00;;;22.10
22322;BMP180;11328;53.928;18.522;2023-08-30T09:12:25;99239.00;;;22.00
22322;BMP180;11328;53.928;18.522;2023-08-30T09:14:54;99239.00;;;22.00
22322;BMP180;11328;53.928;18.522;2023-08-30T09:17:24;99240.00;;;21.90
22322;BMP180;11328;53.928;18.522;2023-08-30T09:20:12;99240.00;;;22.20
22322;BMP180;11328;53.928;18.522;2023-08-30T09:22:41;99242.00;;;22.30
22322;BMP180;11328;53.928;18.522;2023-08-30T09:25:11;99248.00;;;22.20
22322;BMP180;11328;53.928;18.522;2023-08-30T09:27:38;99249.00;;;22.30
22322;BMP180;11328;53.928;18.522;2023-08-30T09:30:09;99240.00;;;22.40
22322;BMP180;11328;53.928;18.522;2023-08-30T09:32:41;99239.00;;;22.40
22322;BMP180;11328;53.928;18.522;2023-08-30T09:35:09;99245.00;;;22.40
22322;BMP180;11328;53.928;18.522;2023-08-30T09:37:37;99238.00;;;22.40
22322;BMP180;11328;53.928;18.522;2023-08-30T09:40:05;99262.00;;;22.30
22322;BMP180;11328;53.928;18.522;2023-08-30T09:42:33;99254.00;;;22.20
22322;BMP180;11328;53.928;18.522;2023-08-30T09:45:01;99255.00;;;22.30
22322;BMP180;11328;53.928;18.522;2023-08-30T09:47:29;99254.00;;;22.30
22322;BMP180;11328;53.928;18.522;2023-08-30T09:50:00;99261.00;;;22.40
22322;BMP180;11328;53.928;18.522;2023-08-30T09:52:30;99253.00;;;22.50
22322;BMP180;11328;53.928;18.522;2023-08-30T09:54:58;99259.00;;;22.40
22322;BMP180;11328;53.928;18.522;2023-08-30T09:57:26;99263.00;;;22.10
22322;BMP180;11328;53.928;18.522;2023-08-30T09:59:55;99251.00;;;22.00
22322;BMP180;11328;53.928;18.522;2023-08-30T10:02:24;99260.00;;;22.10
22322;BMP180;11328;53.928;18.522;2023-08-30T10:04:52;99252.00;;;22.10
22322;BMP180;11328;53.928;18.522;2023-08-30T10:07:21;99268.00;;;22.10
22322;BMP180;11328;53.928;18.522;2023-08-30T10:09:51;99270.00;;;22.10
22322;BMP180;11328;53.928;18.522;2023-08-30T10:12:36;99269.00;;;22.10
22322;BMP180;11328;53.928;18.522;2023-08-30T10:15:05;99271.00;;;22.30
22322;BMP180;11328;53.928;18.522;2023-08-30T10:17:33;99258.00;;;22.40
22322;BMP180;11328;53.928;18.522;2023-08-30T10:20:05;99268.00;;;22.50
22322;BMP180;11328;53.928;18.522;2023-08-30T10:22:39;99277.00;;;22.50
22322;BMP180;11328;53.928;18.522;2023-08-30T10:25:22;99278.00;;;22.40
22322;BMP180;11328;53.928;18.522;2023-08-30T10:27:52;99276.00;;;22.30
22322;BMP180;11328;53.928;18.522;2023-08-30T10:30:22;99283.00;;;22.20
22322;BMP180;11328;53.928;18.522;2023-08-30T10:32:50;99278.00;;;22.20
22322;BMP180;11328;53.928;18.522;2023-08-30T10:35:19;99272.00;;;22.20
22322;BMP180;11328;53.928;18.522;2023-08-30T10:37:59;99272.00;;;22.20
22322;BMP180;11328;53.928;18.522;2023-08-30T10:40:27;99268.00;;;22.30
22322;BMP180;11328;53.928;18.522;2023-08-30T10:43:04;99264.00;;;22.20
22322;BMP180;11328;53.928;18.522;2023-08-30T10:45:32;99272.00;;;22.40
22322;BMP180;11328;53.928;18.522;2023-08-30T10:47:59;99274.00;;;22.50
22322;BMP180;11328;53.928;18.522;2023-08-30T10:50:34;99270.00;;;22.40
22322;BMP180;11328;53.928;18.522;2023-08-30T10:53:01;99225.00;;;22.40
22322;BMP180;11328;53.928;18.522;2023-08-30T10:55:29;99263.00;;;22.40
22322;BMP180;11328;53.928;18.522;2023-08-30T10:58:02;99262.00;;;22.50
22322;BMP180;11328;53.928;18.522;2023-08-30T11:00:31;99263.00;;;22.50
22322;BMP180;11328;53.928;18.522;2023-08-30T11:02:59;99263.00;;;22.40
22322;BMP180;11328;53.928;18.522;2023-08-30T11:05:28;99260.00;;;22.30
22322;BMP180;11328;53.928;18.522;2023-08-30T11:07:56;99259.00;;;22.10
22322;BMP180;11328;53.928;18.522;2023-08-30T11:10:24;99265.00;;;22.10
22322;BMP180;11328;53.928;18.522;2023-08-30T11:12:52;99260.00;;;22.10
22322;BMP180;11328;53.928;18.522;2023-08-30T11:15:19;99267.00;;;22.10
22322;BMP180;11328;53.928;18.522;2023-08-30T11:17:48;99250.00;;;22.00
22322;BMP180;11328;53.928;18.522;2023-08-30T11:20:17;99255.00;;;22.00
22322;BMP180;11328;53.928;18.522;2023-08-30T11:22:48;99256.00;;;21.70
22322;BMP180;11328;53.928;18.522;2023-08-30T11:25:16;99245.00;;;22.00
22322;BMP180;11328;53.928;18.522;2023-08-30T11:27:44;99247.00;;;22.20
22322;BMP180;11328;53.928;18.522;2023-08-30T11:30:12;99250.00;;;22.30
22322;BMP180;11328;53.928;18.522;2023-08-30T11:32:41;99240.00;;;22.30
22322;BMP180;11328;53.928;18.522;2023-08-30T11:35:12;99246.00;;;22.30
22322;BMP180;11328;53.928;18.522;2023-08-30T11:37:41;99248.00;;;22.30
22322;BMP180;11328;53.928;18.522;2023-08-30T11:40:12;99241.00;;;22.10
22322;BMP180;11328;53.928;18.522;2023-08-30T11:42:40;99240.00;;;22.30
22322;BMP180;11328;53.928;18.522;2023-08-30T11:45:08;99238.00;;;22.30
22322;BMP180;11328;53.928;18.522;2023-08-30T11:47:36;99232.00;;;22.40
22322;BMP180;11328;53.928;18.522;2023-08-30T11:50:04;99193.00;;;22.50
22322;BMP180;11328;53.928;18.522;2023-08-30T11:52:33;99201.00;;;22.50
22322;BMP180;11328;53.928;18.522;2023-08-30T11:55:01;99241.00;;;22.70
22322;BMP180;11328;53.928;18.522;2023-08-30T11:57:33;99245.00;;;22.70
22322;BMP180;11328;53.928;18.522;2023-08-30T12:00:12;99250.00;;;22.70
22322;BMP180;11328;53.928;18.522;2023-08-30T12:02:40;99252.00;;;22.40
22322;BMP180;11328;53.928;18.522;2023-08-30T12:05:13;99256.00;;;22.10
22322;BMP180;11328;53.928;18.522;2023-08-30T12:07:41;99254.00;;;22.20
22322;BMP180;11328;53.928;18.522;2023-08-30T12:10:12;99257.00;;;22.10
22322;BMP180;11328;53.928;18.522;2023-08-30T12:12:45;99252.00;;;21.90
22322;BMP180;11328;53.928;18.522;2023-08-30T12:15:13;99251.00;;;22.00
22322;BMP180;11328;53.928;18.522;2023-08-30T12:17:45;99254.00;;;21.90
22322;BMP180;11328;53.928;18.522;2023-08-30T12:20:17;99258.00;;;21.90
22322;BMP180;11328;53.928;18.522;2023-08-30T12:22:47;99245.00;;;21.80
22322;BMP180;11328;53.928;18.522;2023-08-30T12:25:18;99248.00;;;21.80
22322;BMP180;11328;53.928;18.522;2023-08-30T12:27:46;99243.00;;;21.60
22322;BMP180;11328;53.928;18.522;2023-08-30T12:30:18;99198.00;;;21.40
22322;BMP180;11328;53.928;18.522;2023-08-30T12:32:46;99240.00;;;21.40
22322;BMP180;11328;53.928;18.522;2023-08-30T12:35:15;99240.00;;;21.30
22322;BMP180;11328;53.928;18.522;2023-08-30T12:37:44;99246.00;;;21.30
22322;BMP180;11328;53.928;18.522;2023-08-30T12:40:12;99250.00;;;21.60
22322;BMP180;11328;53.928;18.522;2023-08-30T12:42:39;99251.00;;;21.60
22322;BMP180;11328;53.928;18.522;2023-08-30T12:45:07;99261.00;;;21.60
22322;BMP180;11328;53.928;18.522;2023-08-30T12:47:35;99254.00;;;21.70
22322;BMP180;11328;53.928;18.522;2023-08-30T12:50:03;99258.00;;;21.70
22322;BMP180;11328;53.928;18.522;2023-08-30T12:52:30;99259.00;;;21.70
22322;BMP180;11328;53.928;18.522;2023-08-30T12:54:57;99265.00;;;21.80
22322;BMP180;11328;53.928;18.522;2023-08-30T12:57:25;99262.00;;;21.90
22322;BMP180;11328;53.928;18.522;2023-08-30T12:59:53;99267.00;;;22.10
22322;BMP180;11328;53.928;18.522;2023-08-30T13:02:20;99262.00;;;22.00
22322;BMP180;11328;53.928;18.522;2023-08-30T13:04:47;99264.00;;;21.80
22322;BMP180;11328;53.928;18.522;2023-08-30T13:07:15;99270.00;;;21.70
22322;BMP180;11328;53.928;18.522;2023-08-30T13:09:42;99263.00;;;21.80
22322;BMP180;11328;53.928;18.522;2023-08-30T13:12:09;99263.00;;;21.80
22322;BMP180;11328;53.928;18.522;2023-08-30T13:14:36;99261.00;;;21.90
22322;BMP180;11328;53.928;18.522;2023-08-30T13:17:03;99210.00;;;22.00
22322;BMP180;11328;53.928;18.522;2023-08-30T13:19:31;99253.00;;;22.00
22322;BMP180;11328;53.928;18.522;2023-08-30T13:21:58;99255.00;;;22.10
22322;BMP180;11328;53.928;18.522;2023-08-30T13:24:25;99251.00;;;22.20
22322;BMP180;11328;53.928;18.522;2023-08-30T13:26:55;99257.00;;;22.10
22322;BMP180;11328;53.928;18.522;2023-08-30T13:29:23;99258.00;;;22.20
22322;BMP180;11328;53.928;18.522;2023-08-30T13:31:50;99257.00;;;22.10
22322;BMP180;11328;53.928;18.522;2023-08-30T13:34:17;99257.00;;;22.20
22322;BMP180;11328;53.928;18.522;2023-08-30T13:36:45;99252.00;;;22.00
22322;BMP180;11328;53.928;18.522;2023-08-30T13:39:12;99251.00;;;22.10
22322;BMP180;11328;53.928;18.522;2023-08-30T13:41:39;99253.00;;;22.00
22322;BMP180;11328;53.928;18.522;2023-08-30T13:44:07;99249.00;;;22.00
22322;BMP180;11328;53.928;18.522;2023-08-30T13:46:34;99247.00;;;21.90
22322;BMP180;11328;53.928;18.522;2023-08-30T13:49:02;99239.00;;;21.90
22322;BMP180;11328;53.928;18.522;2023-08-30T13:51:29;99236.00;;;22.00
22322;BMP180;11328;53.928;18.522;2023-08-30T13:53:57;99224.00;;;22.10
22322;BMP180;11328;53.928;18.522;2023-08-30T13:56:24;99236.00;;;22.10
22322;BMP180;11328;53.928;18.522;2023-08-30T13:58:55;99239.00;;;22.30
22322;BMP180;11328;53.928;18.522;2023-08-30T14:01:23;99230.00;;;22.30
22322;BMP180;11328;53.928;18.522;2023-08-30T14:03:50;99234.00;;;22.40
22322;BMP180;11328;53.928;18.522;2023-08-30T14:06:18;99241.00;;;22.50
22322;BMP180;11328;53.928;18.522;2023-08-30T14:08:45;99242.00;;;22.60
22322;BMP180;11328;53.928;18.522;2023-08-30T14:11:12;99242.00;;;22.60